• Join FlightAware (Why Join?)
  • Login
  • US Flag 
05:21AM EDT


 

Airport Tracker/Info


-or-


 

Live Flight TrackerFlight Track Log ✈ UAL4625 ✈ 30-Apr-2013 ✈ KEWR - KCHS

Flight Track Log - Related Links

Times and Time Zones

All times are in EDT time to prevent confusion due to time zone crossing. See the UAL4625 flight status page for this flight to view local times or setup timezone preferences in your user account.

Time Position Orientation Groundspeed Altitude Reporting Facility
EDT Latitude Longitude Course Direction KTS MPH feet Rate Location/Type
08:38AM 40.7167 -74.1333 180° South 181 208 1,900  Level New York TRACON
08:39AM 40.7972 -74.1317 North 216 249 4,800 1,800 Climbing New York Center
08:40AM 40.3983 -74.1991 159° South  Level FlightAware Approximate
08:40AM 40.7514 -74.2033 230° Southwest 91 105 6,600  Level New York Center
08:41AM 40.2993 -74.1502 194° South  Level FlightAware Approximate
08:41AM 40.6861 -74.2275 196° South 182 209 9,600  Level New York Center
08:42AM 40.1967 -74.1844 194° South  Level FlightAware Approximate
08:42AM 40.6064 -74.2400 187° South 253 291 12,100  Level New York Center
08:43AM 40.0947 -74.2167 180° South  Level FlightAware Approximate
08:43AM 40.5333 -74.2444 183° South 304 350 12,900  Level New York Center
08:44AM 40.4144 -74.2492 182° South 356 410 15,500 1,860 Climbing New York Center
08:47AM 40.2039 -74.2497 180° South 366 421 18,900 1,560 Climbing Washington Center
08:48AM 40.0936 -74.2519 181° South 379 436 20,500 1,620 Climbing Washington Center
08:49AM 39.9853 -74.2728 188° South 391 450 22,200 1,440 Climbing Washington Center
08:50AM 39.8925 -74.3583 215° Southwest 385 443 23,500 1,440 Climbing Washington Center
08:51AM 39.8039 -74.4492 218° Southwest 396 456 25,100 1,260 Climbing Washington Center
08:52AM 39.7236 -74.5528 225° Southwest 401 461 26,000 420 Climbing Washington Center
08:53AM 39.6453 -74.6592 226° Southwest 408 470 26,000 480 Level Washington Center
08:54AM 39.5628 -74.7678 225° Southwest 413 475 27,000 1,080 Climbing Washington Center
08:55AM 39.4758 -74.8817 225° Southwest 413 475 28,200 1,140 Climbing Washington Center
08:56AM 39.3953 -74.9872 225° Southwest 413 475 29,300 1,200 Climbing Washington Center
08:57AM 39.3167 -75.0872 225° Southwest 408 470 30,700 1,440 Climbing Washington Center
08:58AM 39.2125 -75.1522 206° Southwest 408 470 32,200 1,440 Climbing Washington Center
08:59AM 39.1022 -75.1958 197° South 408 470 33,600 1,140 Climbing Washington Center
09:00AM 38.9919 -75.2417 198° South 414 476 34,600 1,140 Climbing Washington Center
09:01AM 38.8836 -75.2903 199° South 414 476 35,900 660 Climbing Washington Center
09:02AM 38.7733 -75.3361 198° South 414 476 36,000  Climbing Washington Center
09:03AM 38.6589 -75.3817 197° South 430 495 36,000  Level Washington Center
09:04AM 38.5378 -75.4325 198° South 441 507 36,000  Level Washington Center
09:05AM 38.4211 -75.4778 197° South 446 513 36,000  Level Washington Center
09:06AM 38.3128 -75.5389 204° Southwest 441 507 36,000  Level Washington Center
09:07AM 38.2128 -75.6314 216° Southwest 431 496 36,000  Level Washington Center
09:08AM 38.1189 -75.7236 218° Southwest 431 496 36,000  Level Washington Center
09:09AM 38.0228 -75.8211 219° Southwest 442 509 36,000  Level Washington Center
09:10AM 37.9225 -75.9050 213° Southwest 442 509 36,000  Level Washington Center
09:11AM 37.8264 -75.9967 217° Southwest 442 509 36,000  Level Washington Center
09:12AM 37.7300 -76.0906 218° Southwest 442 509 36,000  Level Washington Center
09:13AM 37.6317 -76.1767 215° Southwest 442 509 36,000  Level Washington Center
09:14AM 37.5353 -76.2647 216° Southwest 442 509 36,000  Level Washington Center
09:15AM 37.4386 -76.3556 217° Southwest 442 509 36,000  Level Washington Center
09:16AM 37.3381 -76.4461 216° Southwest 442 509 36,000  Level Washington Center
09:17AM 37.2392 -76.5361 216° Southwest 442 509 36,000  Level Washington Center
09:18AM 37.1406 -76.6236 215° Southwest 442 509 36,000  Level Washington Center
09:19AM 37.0458 -76.7108 216° Southwest 437 503 36,000  Level Washington Center
09:20AM 36.9469 -76.8003 216° Southwest 437 503 36,000  Level Washington Center
09:21AM 36.8522 -76.8872 216° Southwest 437 503 36,000  Level Washington Center
09:22AM 36.7531 -76.9761 216° Southwest 437 503 36,000  Level Washington Center
09:23AM 36.6561 -77.0650 216° Southwest 437 503 36,000  Level Washington Center
09:24AM 36.5611 -77.1589 218° Southwest 437 503 36,000  Level Washington Center
09:25AM 36.4658 -77.2500 218° Southwest 442 509 36,000  Level Washington Center
09:26AM 36.3686 -77.3408 217° Southwest 442 509 36,000  Level Washington Center
09:27AM 36.2692 -77.4289 216° Southwest 442 509 36,000  Level Washington Center
09:28AM 36.1867 -77.5119 219° Southwest 433 498 36,000  Level Washington Center
09:29AM 36.0869 -77.6044 217° Southwest 433 498 36,000 -660 Level Washington Center
09:30AM 35.9875 -77.6944 216° Southwest 444 511 34,700 -1,020 Descending Washington Center
09:31AM 35.8858 -77.7789 214° Southwest 444 511 34,000 -360 Descending Washington Center
09:32AM 35.7778 -77.8631 212° Southwest 449 517 34,000  Level Washington Center
09:33AM 35.6761 -77.9419 212° Southwest 449 517 34,000  Level Washington Center
09:34AM 35.5744 -78.0206 212° Southwest 444 511 34,000  Level Washington Center
09:35AM 35.4747 -78.0992 213° Southwest 444 511 34,000  Level Washington Center
09:36AM 35.3728 -78.1775 212° Southwest 439 505 34,000  Level Washington Center
09:37AM 35.2708 -78.2556 212° Southwest 439 505 34,000  Level Washington Center
09:38AM 35.1711 -78.3311 212° Southwest 439 505 34,000  Level Washington Center
09:39AM 35.0692 -78.4114 213° Southwest 439 505 34,000 -600 Level Washington Center
09:40AM 34.9692 -78.4892 213° Southwest 439 505 32,800 -1,380 Descending Washington Center
09:41AM 34.8714 -78.5614 211° Southwest 433 498 31,300 -1,440 Descending Washington Center
09:43AM 34.6339 -78.7419 212° Southwest 423 487 28,000 -1,020 Descending Jacksonville Center
09:44AM 34.5342 -78.8172 212° Southwest 423 487 28,000  Level Jacksonville Center
09:45AM 34.4264 -78.9078 215° Southwest 436 502 28,000 -720 Level Jacksonville Center
09:46AM 34.3244 -78.9831 211° Southwest 436 502 26,600 -1,740 Descending Jacksonville Center
09:47AM 34.2158 -79.0456 205° Southwest 436 502 24,600 -2,040 Descending Jacksonville Center
09:48AM 34.1047 -79.0981 201° Southwest 436 502 22,600 -2,040 Descending Jacksonville Center
09:49AM 33.9958 -79.1481 201° Southwest 430 495 20,600 -2,040 Descending Jacksonville Center
09:50AM 33.8886 -79.1950 200° South 425 489 18,600 -1,320 Descending Jacksonville Center
09:51AM 33.7836 -79.2444 201° Southwest 420 483 18,000 -600 Descending Jacksonville Center
09:52AM 33.6997 -79.3028 210° Southwest 415 478 17,500 -660 Descending Jacksonville Center
09:53AM 33.6078 -79.3714 212° Southwest 395 455 16,700 -1,200 Descending Jacksonville Center
09:54AM 33.5181 -79.4422 213° Southwest 395 455 15,100 -2,040 Descending Jacksonville Center
09:55AM 33.4300 -79.5078 212° Southwest 385 443 12,700 -2,100 Descending Jacksonville Center
09:56AM 33.3461 -79.5708 212° Southwest 374 430 11,000 -1,200 Descending Jacksonville Center
09:57AM 33.2725 -79.6256 212° Southwest 351 404 10,300 -1,140 Descending Jacksonville Center
09:58AM 33.2089 -79.6725 212° Southwest 306 352 8,800 -1,500 Descending Jacksonville Center
09:59AM 33.1433 -79.7222 212° Southwest 293 337 7,300 -1,500 Descending Jacksonville Center
10:00AM 33.0778 -79.7742 214° Southwest 288 331 5,800 -1,500 Descending Jacksonville Center
10:01AM 33.0164 -79.8208 213° Southwest 275 316 4,300 -900 Descending Jacksonville Center
10:02AM 32.9550 -79.8700 214° Southwest 270 311 4,000 -240 Descending Jacksonville Center
10:03AM 32.8914 -79.9167 212° Southwest 270 311 3,900  Descending Jacksonville Center
10:04AM 32.8253 -79.9483 202° Southwest 264 304 4,000 60 Climbing Jacksonville Center
10:06AM 32.8456 -80.0239 348° North  Level FlightAware Approximate
10:13AM 32.8833 -80.0333 348° North  Level FlightAware Approximate
10:14AM 32.8986 -80.0405 348° North  Level Estimated
10:15AM 32.8986 -80.0405 348° North  Level Estimated
10:16AM 32.8986 -80.0405 348° North  Level Estimated
10:17AM 32.8986 -80.0405 348° North  Level Estimated
10:18AM 32.8986 -80.0405 348° North  Level Estimated
10:19AM 32.8986 -80.0405 348° North  Level Estimated
10:20AM 32.8986 -80.0405 348° North  Level Estimated
10:21AM 32.8986 -80.0405 348° North  Level Estimated
10:22AM 32.8986 -80.0405 348° North  Level Estimated